sensor_id;sensor_type;location;lat;lon;timestamp;P1;durP1;ratioP1;P2;durP2;ratioP2
8958;SDS011;4514;49.476;8.484;2022-09-01T00:01:55;2.92;;;2.72;;
8958;SDS011;4514;49.476;8.484;2022-09-01T00:04:24;3.33;;;3.03;;
8958;SDS011;4514;49.476;8.484;2022-09-01T00:06:52;4.97;;;3.10;;
8958;SDS011;4514;49.476;8.484;2022-09-01T00:09:20;5.25;;;3.28;;
8958;SDS011;4514;49.476;8.484;2022-09-01T00:11:50;3.03;;;2.75;;
8958;SDS011;4514;49.476;8.484;2022-09-01T00:14:22;3.50;;;3.20;;
8958;SDS011;4514;49.476;8.484;2022-09-01T00:16:49;3.92;;;3.45;;
8958;SDS011;4514;49.476;8.484;2022-09-01T00:19:14;3.40;;;3.20;;
8958;SDS011;4514;49.476;8.484;2022-09-01T00:21:42;3.55;;;3.20;;
8958;SDS011;4514;49.476;8.484;2022-09-01T00:24:09;3.53;;;3.22;;
8958;SDS011;4514;49.476;8.484;2022-09-01T00:26:40;3.40;;;3.10;;
8958;SDS011;4514;49.476;8.484;2022-09-01T00:29:11;5.38;;;3.28;;
8958;SDS011;4514;49.476;8.484;2022-09-01T00:31:36;3.78;;;3.35;;
8958;SDS011;4514;49.476;8.484;2022-09-01T00:34:02;4.00;;;3.35;;
8958;SDS011;4514;49.476;8.484;2022-09-01T00:36:27;3.88;;;3.30;;
8958;SDS011;4514;49.476;8.484;2022-09-01T00:38:53;3.38;;;3.08;;
8958;SDS011;4514;49.476;8.484;2022-09-01T00:41:22;3.88;;;2.85;;
8958;SDS011;4514;49.476;8.484;2022-09-01T00:48:54;6.90;;;4.53;;
8958;SDS011;4514;49.476;8.484;2022-09-01T00:51:21;7.10;;;3.75;;
8958;SDS011;4514;49.476;8.484;2022-09-01T00:53:47;3.58;;;3.28;;
8958;SDS011;4514;49.476;8.484;2022-09-01T00:56:13;3.45;;;3.15;;
8958;SDS011;4514;49.476;8.484;2022-09-01T00:58:42;3.40;;;3.17;;
8958;SDS011;4514;49.476;8.484;2022-09-01T01:01:09;3.83;;;3.40;;
8958;SDS011;4514;49.476;8.484;2022-09-01T01:03:35;3.38;;;3.08;;
8958;SDS011;4514;49.476;8.484;2022-09-01T01:06:03;3.55;;;3.15;;
8958;SDS011;4514;49.476;8.484;2022-09-01T01:08:33;4.60;;;3.05;;
8958;SDS011;4514;49.476;8.484;2022-09-01T01:11:03;3.28;;;3.00;;
8958;SDS011;4514;49.476;8.484;2022-09-01T01:13:53;4.30;;;3.25;;
8958;SDS011;4514;49.476;8.484;2022-09-01T01:16:41;3.58;;;3.28;;
8958;SDS011;4514;49.476;8.484;2022-09-01T01:19:15;3.60;;;3.30;;
8958;SDS011;4514;49.476;8.484;2022-09-01T01:22:21;3.53;;;3.22;;
8958;SDS011;4514;49.476;8.484;2022-09-01T01:25:10;4.18;;;2.97;;
8958;SDS011;4514;49.476;8.484;2022-09-01T01:27:39;4.40;;;3.40;;
8958;SDS011;4514;49.476;8.484;2022-09-01T01:30:08;3.33;;;3.13;;
8958;SDS011;4514;49.476;8.484;2022-09-01T01:32:38;5.13;;;3.47;;
8958;SDS011;4514;49.476;8.484;2022-09-01T01:35:08;3.70;;;3.40;;
8958;SDS011;4514;49.476;8.484;2022-09-01T01:37:38;3.70;;;3.40;;
8958;SDS011;4514;49.476;8.484;2022-09-01T01:40:09;4.22;;;3.83;;
8958;SDS011;4514;49.476;8.484;2022-09-01T01:42:41;4.35;;;3.95;;
8958;SDS011;4514;49.476;8.484;2022-09-01T01:45:08;4.75;;;4.13;;
8958;SDS011;4514;49.476;8.484;2022-09-01T01:47:39;5.85;;;3.83;;
8958;SDS011;4514;49.476;8.484;2022-09-01T01:50:04;5.03;;;4.13;;
8958;SDS011;4514;49.476;8.484;2022-09-01T01:52:33;5.00;;;4.40;;
8958;SDS011;4514;49.476;8.484;2022-09-01T01:54:59;5.13;;;3.97;;
8958;SDS011;4514;49.476;8.484;2022-09-01T01:57:26;4.55;;;4.10;;
8958;SDS011;4514;49.476;8.484;2022-09-01T01:59:56;4.47;;;4.07;;
8958;SDS011;4514;49.476;8.484;2022-09-01T02:02:21;5.20;;;4.70;;
8958;SDS011;4514;49.476;8.484;2022-09-01T02:04:47;5.45;;;4.28;;
8958;SDS011;4514;49.476;8.484;2022-09-01T02:07:12;7.13;;;4.40;;
8958;SDS011;4514;49.476;8.484;2022-09-01T02:09:40;4.55;;;4.15;;
8958;SDS011;4514;49.476;8.484;2022-09-01T02:12:14;5.75;;;4.45;;
8958;SDS011;4514;49.476;8.484;2022-09-01T02:14:43;5.13;;;4.60;;
8958;SDS011;4514;49.476;8.484;2022-09-01T02:17:08;5.15;;;4.60;;
8958;SDS011;4514;49.476;8.484;2022-09-01T02:19:36;5.10;;;4.65;;
8958;SDS011;4514;49.476;8.484;2022-09-01T02:22:08;4.72;;;4.22;;
8958;SDS011;4514;49.476;8.484;2022-09-01T02:24:36;6.20;;;4.53;;
8958;SDS011;4514;49.476;8.484;2022-09-01T02:27:13;5.20;;;4.70;;
8958;SDS011;4514;49.476;8.484;2022-09-01T02:29:43;7.75;;;5.05;;
8958;SDS011;4514;49.476;8.484;2022-09-01T02:32:09;6.53;;;5.00;;
8958;SDS011;4514;49.476;8.484;2022-09-01T02:34:35;5.57;;;4.88;;
8958;SDS011;4514;49.476;8.484;2022-09-01T02:37:03;5.20;;;4.80;;
8958;SDS011;4514;49.476;8.484;2022-09-01T02:39:30;5.32;;;4.88;;
8958;SDS011;4514;49.476;8.484;2022-09-01T02:42:00;5.60;;;4.88;;
8958;SDS011;4514;49.476;8.484;2022-09-01T02:44:26;5.95;;;4.82;;
8958;SDS011;4514;49.476;8.484;2022-09-01T02:46:58;6.15;;;5.32;;
8958;SDS011;4514;49.476;8.484;2022-09-01T02:49:25;6.38;;;4.90;;
8958;SDS011;4514;49.476;8.484;2022-09-01T02:51:54;4.97;;;4.57;;
8958;SDS011;4514;49.476;8.484;2022-09-01T02:54:25;4.82;;;4.43;;
8958;SDS011;4514;49.476;8.484;2022-09-01T02:56:52;4.97;;;4.47;;
8958;SDS011;4514;49.476;8.484;2022-09-01T02:59:19;4.68;;;4.28;;
8958;SDS011;4514;49.476;8.484;2022-09-01T03:01:46;4.93;;;4.53;;
8958;SDS011;4514;49.476;8.484;2022-09-01T03:04:12;5.03;;;4.53;;
8958;SDS011;4514;49.476;8.484;2022-09-01T03:06:40;5.75;;;4.53;;
8958;SDS011;4514;49.476;8.484;2022-09-01T03:09:07;4.68;;;4.28;;
8958;SDS011;4514;49.476;8.484;2022-09-01T03:11:37;5.88;;;4.85;;
8958;SDS011;4514;49.476;8.484;2022-09-01T03:14:04;5.20;;;4.70;;
8958;SDS011;4514;49.476;8.484;2022-09-01T03:16:32;5.20;;;4.70;;
8958;SDS011;4514;49.476;8.484;2022-09-01T03:18:58;4.47;;;4.15;;
8958;SDS011;4514;49.476;8.484;2022-09-01T03:21:23;8.90;;;4.68;;
8958;SDS011;4514;49.476;8.484;2022-09-01T03:23:50;4.35;;;4.05;;
8958;SDS011;4514;49.476;8.484;2022-09-01T03:26:19;5.30;;;4.80;;
8958;SDS011;4514;49.476;8.484;2022-09-01T03:28:46;5.20;;;4.80;;
8958;SDS011;4514;49.476;8.484;2022-09-01T03:31:14;5.45;;;4.72;;
8958;SDS011;4514;49.476;8.484;2022-09-01T03:33:42;4.70;;;4.30;;
8958;SDS011;4514;49.476;8.484;2022-09-01T03:36:10;5.15;;;4.28;;
8958;SDS011;4514;49.476;8.484;2022-09-01T03:38:47;4.97;;;3.85;;
8958;SDS011;4514;49.476;8.484;2022-09-01T03:41:16;4.30;;;3.90;;
8958;SDS011;4514;49.476;8.484;2022-09-01T03:43:47;4.60;;;4.00;;
8958;SDS011;4514;49.476;8.484;2022-09-01T03:46:13;5.35;;;4.82;;
8958;SDS011;4514;49.476;8.484;2022-09-01T03:48:49;5.97;;;4.57;;
8958;SDS011;4514;49.476;8.484;2022-09-01T03:51:17;4.95;;;4.55;;
8958;SDS011;4514;49.476;8.484;2022-09-01T03:53:44;5.18;;;4.78;;
8958;SDS011;4514;49.476;8.484;2022-09-01T03:56:10;4.85;;;4.43;;
8958;SDS011;4514;49.476;8.484;2022-09-01T03:58:36;4.60;;;4.22;;
8958;SDS011;4514;49.476;8.484;2022-09-01T04:01:03;5.40;;;4.90;;
8958;SDS011;4514;49.476;8.484;2022-09-01T04:03:30;5.07;;;4.63;;
8958;SDS011;4514;49.476;8.484;2022-09-01T04:06:00;4.93;;;4.53;;
8958;SDS011;4514;49.476;8.484;2022-09-01T04:08:28;4.95;;;4.55;;
8958;SDS011;4514;49.476;8.484;2022-09-01T04:10:55;4.55;;;4.13;;
8958;SDS011;4514;49.476;8.484;2022-09-01T04:13:27;5.28;;;4.78;;
8958;SDS011;4514;49.476;8.484;2022-09-01T04:15:55;5.85;;;4.88;;
8958;SDS011;4514;49.476;8.484;2022-09-01T04:18:21;4.90;;;4.53;;
8958;SDS011;4514;49.476;8.484;2022-09-01T04:20:48;5.60;;;5.10;;
8958;SDS011;4514;49.476;8.484;2022-09-01T04:25:51;7.65;;;5.53;;
8958;SDS011;4514;49.476;8.484;2022-09-01T04:28:18;5.15;;;4.75;;
8958;SDS011;4514;49.476;8.484;2022-09-01T04:30:54;5.35;;;4.78;;
8958;SDS011;4514;49.476;8.484;2022-09-01T04:33:24;5.43;;;4.93;;
8958;SDS011;4514;49.476;8.484;2022-09-01T04:36:03;5.38;;;4.85;;
8958;SDS011;4514;49.476;8.484;2022-09-01T04:38:31;5.80;;;4.90;;
8958;SDS011;4514;49.476;8.484;2022-09-01T04:41:03;5.75;;;5.18;;
8958;SDS011;4514;49.476;8.484;2022-09-01T04:43:30;5.55;;;4.88;;
8958;SDS011;4514;49.476;8.484;2022-09-01T04:45:57;7.10;;;5.05;;
8958;SDS011;4514;49.476;8.484;2022-09-01T04:48:23;5.50;;;4.90;;
8958;SDS011;4514;49.476;8.484;2022-09-01T04:50:49;5.50;;;4.97;;
8958;SDS011;4514;49.476;8.484;2022-09-01T04:53:16;4.97;;;4.47;;
8958;SDS011;4514;49.476;8.484;2022-09-01T04:55:42;5.30;;;4.90;;
8958;SDS011;4514;49.476;8.484;2022-09-01T04:58:14;7.20;;;5.68;;
8958;SDS011;4514;49.476;8.484;2022-09-01T05:00:45;5.63;;;5.13;;
8958;SDS011;4514;49.476;8.484;2022-09-01T05:03:12;5.88;;;5.32;;
8958;SDS011;4514;49.476;8.484;2022-09-01T05:05:39;5.38;;;4.72;;
8958;SDS011;4514;49.476;8.484;2022-09-01T05:08:12;7.57;;;5.40;;
8958;SDS011;4514;49.476;8.484;2022-09-01T05:10:43;8.65;;;5.18;;
8958;SDS011;4514;49.476;8.484;2022-09-01T05:13:13;6.03;;;5.32;;
8958;SDS011;4514;49.476;8.484;2022-09-01T05:15:41;7.90;;;5.15;;
8958;SDS011;4514;49.476;8.484;2022-09-01T05:18:17;6.05;;;5.50;;
8958;SDS011;4514;49.476;8.484;2022-09-01T05:20:49;6.55;;;5.57;;
8958;SDS011;4514;49.476;8.484;2022-09-01T05:23:17;7.63;;;5.57;;
8958;SDS011;4514;49.476;8.484;2022-09-01T05:25:44;8.02;;;5.45;;
8958;SDS011;4514;49.476;8.484;2022-09-01T05:28:14;8.80;;;5.65;;
8958;SDS011;4514;49.476;8.484;2022-09-01T05:30:45;6.53;;;5.20;;
8958;SDS011;4514;49.476;8.484;2022-09-01T05:33:12;8.02;;;5.68;;
8958;SDS011;4514;49.476;8.484;2022-09-01T05:35:51;6.57;;;5.80;;
8958;SDS011;4514;49.476;8.484;2022-09-01T05:38:19;6.25;;;5.63;;
8958;SDS011;4514;49.476;8.484;2022-09-01T05:41:02;6.28;;;5.68;;
8958;SDS011;4514;49.476;8.484;2022-09-01T05:43:32;5.97;;;5.38;;
8958;SDS011;4514;49.476;8.484;2022-09-01T05:45:58;7.60;;;5.50;;
8958;SDS011;4514;49.476;8.484;2022-09-01T05:48:28;5.60;;;5.10;;
8958;SDS011;4514;49.476;8.484;2022-09-01T05:50:58;7.10;;;5.90;;
8958;SDS011;4514;49.476;8.484;2022-09-01T05:53:25;5.97;;;5.10;;
8958;SDS011;4514;49.476;8.484;2022-09-01T05:55:51;5.20;;;4.70;;
8958;SDS011;4514;49.476;8.484;2022-09-01T05:58:25;4.95;;;4.53;;
8958;SDS011;4514;49.476;8.484;2022-09-01T06:00:52;11.70;;;4.97;;
8958;SDS011;4514;49.476;8.484;2022-09-01T06:03:20;4.20;;;3.80;;
8958;SDS011;4514;49.476;8.484;2022-09-01T06:05:46;5.13;;;4.50;;
8958;SDS011;4514;49.476;8.484;2022-09-01T06:08:16;4.72;;;4.32;;
8958;SDS011;4514;49.476;8.484;2022-09-01T06:10:43;5.07;;;4.60;;
8958;SDS011;4514;49.476;8.484;2022-09-01T06:13:09;4.47;;;4.07;;
8958;SDS011;4514;49.476;8.484;2022-09-01T06:15:36;5.95;;;4.28;;
8958;SDS011;4514;49.476;8.484;2022-09-01T06:18:08;4.15;;;3.90;;
8958;SDS011;4514;49.476;8.484;2022-09-01T06:20:39;4.30;;;4.00;;
8958;SDS011;4514;49.476;8.484;2022-09-01T06:23:08;4.95;;;4.50;;
8958;SDS011;4514;49.476;8.484;2022-09-01T06:25:38;4.63;;;4.20;;
8958;SDS011;4514;49.476;8.484;2022-09-01T06:28:12;4.60;;;4.20;;
8958;SDS011;4514;49.476;8.484;2022-09-01T06:30:38;4.53;;;3.97;;
8958;SDS011;4514;49.476;8.484;2022-09-01T06:33:09;4.18;;;3.80;;
8958;SDS011;4514;49.476;8.484;2022-09-01T06:35:38;4.82;;;4.38;;
8958;SDS011;4514;49.476;8.484;2022-09-01T06:38:06;4.20;;;3.90;;
8958;SDS011;4514;49.476;8.484;2022-09-01T06:40:35;4.70;;;4.30;;
8958;SDS011;4514;49.476;8.484;2022-09-01T06:43:05;4.63;;;4.20;;
8958;SDS011;4514;49.476;8.484;2022-09-01T06:45:32;4.57;;;4.25;;
8958;SDS011;4514;49.476;8.484;2022-09-01T06:48:07;4.38;;;3.97;;
8958;SDS011;4514;49.476;8.484;2022-09-01T06:50:40;6.38;;;4.40;;
8958;SDS011;4514;49.476;8.484;2022-09-01T06:53:09;5.18;;;3.83;;
8958;SDS011;4514;49.476;8.484;2022-09-01T06:55:36;4.72;;;4.25;;
8958;SDS011;4514;49.476;8.484;2022-09-01T06:58:06;4.40;;;4.00;;
8958;SDS011;4514;49.476;8.484;2022-09-01T07:00:34;4.78;;;4.18;;
8958;SDS011;4514;49.476;8.484;2022-09-01T07:03:03;4.57;;;4.18;;
8958;SDS011;4514;49.476;8.484;2022-09-01T07:05:32;4.63;;;4.22;;
8958;SDS011;4514;49.476;8.484;2022-09-01T07:07:58;5.18;;;4.50;;
8958;SDS011;4514;49.476;8.484;2022-09-01T07:10:25;5.05;;;4.30;;
8958;SDS011;4514;49.476;8.484;2022-09-01T07:12:52;5.03;;;4.53;;
8958;SDS011;4514;49.476;8.484;2022-09-01T07:15:25;5.25;;;4.57;;
8958;SDS011;4514;49.476;8.484;2022-09-01T07:17:56;5.15;;;4.50;;
8958;SDS011;4514;49.476;8.484;2022-09-01T07:20:23;4.85;;;4.45;;
8958;SDS011;4514;49.476;8.484;2022-09-01T07:22:53;4.45;;;3.97;;
8958;SDS011;4514;49.476;8.484;2022-09-01T07:25:22;4.47;;;4.18;;
8958;SDS011;4514;49.476;8.484;2022-09-01T07:27:52;4.70;;;4.30;;
8958;SDS011;4514;49.476;8.484;2022-09-01T07:30:19;7.55;;;4.40;;
8958;SDS011;4514;49.476;8.484;2022-09-01T07:32:46;4.65;;;4.25;;
8958;SDS011;4514;49.476;8.484;2022-09-01T07:35:16;5.05;;;4.55;;
8958;SDS011;4514;49.476;8.484;2022-09-01T07:37:46;5.32;;;4.50;;
8958;SDS011;4514;49.476;8.484;2022-09-01T07:40:16;5.72;;;4.13;;
8958;SDS011;4514;49.476;8.484;2022-09-01T07:42:52;4.90;;;4.47;;
8958;SDS011;4514;49.476;8.484;2022-09-01T07:45:18;5.72;;;4.72;;
8958;SDS011;4514;49.476;8.484;2022-09-01T07:47:47;5.07;;;4.53;;
8958;SDS011;4514;49.476;8.484;2022-09-01T07:50:13;4.60;;;4.20;;
8958;SDS011;4514;49.476;8.484;2022-09-01T07:52:39;5.00;;;4.60;;
8958;SDS011;4514;49.476;8.484;2022-09-01T07:55:12;5.80;;;4.65;;
8958;SDS011;4514;49.476;8.484;2022-09-01T07:57:42;4.30;;;4.00;;
8958;SDS011;4514;49.476;8.484;2022-09-01T08:00:12;4.78;;;4.38;;
8958;SDS011;4514;49.476;8.484;2022-09-01T08:02:40;5.20;;;4.30;;
8958;SDS011;4514;49.476;8.484;2022-09-01T08:05:08;5.18;;;4.60;;
8958;SDS011;4514;49.476;8.484;2022-09-01T08:07:35;4.93;;;4.53;;
8958;SDS011;4514;49.476;8.484;2022-09-01T08:10:03;6.97;;;5.00;;
8958;SDS011;4514;49.476;8.484;2022-09-01T08:12:34;4.70;;;4.40;;
8958;SDS011;4514;49.476;8.484;2022-09-01T08:15:08;5.30;;;4.80;;
8958;SDS011;4514;49.476;8.484;2022-09-01T08:17:36;4.60;;;4.30;;
8958;SDS011;4514;49.476;8.484;2022-09-01T08:20:07;5.18;;;4.70;;
8958;SDS011;4514;49.476;8.484;2022-09-01T08:22:36;5.55;;;5.00;;
8958;SDS011;4514;49.476;8.484;2022-09-01T08:25:05;5.07;;;4.60;;
8958;SDS011;4514;49.476;8.484;2022-09-01T08:27:32;5.60;;;5.05;;
8958;SDS011;4514;49.476;8.484;2022-09-01T08:30:05;5.35;;;4.85;;
8958;SDS011;4514;49.476;8.484;2022-09-01T08:32:32;4.88;;;4.38;;
8958;SDS011;4514;49.476;8.484;2022-09-01T08:34:58;4.97;;;4.57;;
8958;SDS011;4514;49.476;8.484;2022-09-01T08:37:25;5.40;;;4.35;;
8958;SDS011;4514;49.476;8.484;2022-09-01T08:39:54;4.70;;;4.30;;
8958;SDS011;4514;49.476;8.484;2022-09-01T08:47:53;6.03;;;5.20;;
8958;SDS011;4514;49.476;8.484;2022-09-01T08:50:20;4.90;;;4.50;;
8958;SDS011;4514;49.476;8.484;2022-09-01T08:53:08;4.50;;;3.70;;
8958;SDS011;4514;49.476;8.484;2022-09-01T08:55:34;5.10;;;4.68;;
8958;SDS011;4514;49.476;8.484;2022-09-01T08:58:04;4.65;;;4.25;;
8958;SDS011;4514;49.476;8.484;2022-09-01T09:00:38;5.07;;;4.57;;
8958;SDS011;4514;49.476;8.484;2022-09-01T09:14:40;7.07;;;5.57;;
8958;SDS011;4514;49.476;8.484;2022-09-01T09:17:13;6.30;;;5.70;;
8958;SDS011;4514;49.476;8.484;2022-09-01T09:19:41;5.38;;;4.88;;
8958;SDS011;4514;49.476;8.484;2022-09-01T09:22:08;5.60;;;5.10;;
8958;SDS011;4514;49.476;8.484;2022-09-01T09:27:24;5.68;;;5.18;;
8958;SDS011;4514;49.476;8.484;2022-09-01T09:29:56;4.30;;;3.92;;
8958;SDS011;4514;49.476;8.484;2022-09-01T09:32:24;4.40;;;4.00;;
8958;SDS011;4514;49.476;8.484;2022-09-01T09:38:42;4.78;;;4.30;;
8958;SDS011;4514;49.476;8.484;2022-09-01T09:43:30;5.90;;;4.97;;
8958;SDS011;4514;49.476;8.484;2022-09-01T09:46:39;5.30;;;4.53;;
8958;SDS011;4514;49.476;8.484;2022-09-01T09:48:45;4.40;;;4.10;;
8958;SDS011;4514;49.476;8.484;2022-09-01T09:51:20;4.55;;;4.25;;
8958;SDS011;4514;49.476;8.484;2022-09-01T09:53:48;4.05;;;3.70;;
8958;SDS011;4514;49.476;8.484;2022-09-01T09:56:17;4.60;;;4.00;;
8958;SDS011;4514;49.476;8.484;2022-09-01T09:58:48;5.20;;;4.80;;
8958;SDS011;4514;49.476;8.484;2022-09-01T10:03:48;4.73;;;4.30;;
8958;SDS011;4514;49.476;8.484;2022-09-01T10:08:58;3.95;;;3.58;;
8958;SDS011;4514;49.476;8.484;2022-09-01T10:11:29;3.80;;;3.50;;
8958;SDS011;4514;49.476;8.484;2022-09-01T10:14:00;6.65;;;4.07;;
8958;SDS011;4514;49.476;8.484;2022-09-01T10:16:30;4.75;;;3.65;;
8958;SDS011;4514;49.476;8.484;2022-09-01T10:18:59;3.50;;;3.20;;
8958;SDS011;4514;49.476;8.484;2022-09-01T10:21:37;3.72;;;3.45;;
8958;SDS011;4514;49.476;8.484;2022-09-01T10:24:18;3.53;;;3.33;;
8958;SDS011;4514;49.476;8.484;2022-09-01T10:26:50;4.13;;;3.83;;
8958;SDS011;4514;49.476;8.484;2022-09-01T10:29:31;4.45;;;3.70;;
8958;SDS011;4514;49.476;8.484;2022-09-01T10:32:06;3.80;;;3.50;;
8958;SDS011;4514;49.476;8.484;2022-09-01T10:34:36;4.00;;;3.70;;
8958;SDS011;4514;49.476;8.484;2022-09-01T10:37:02;3.08;;;2.85;;
8958;SDS011;4514;49.476;8.484;2022-09-01T10:39:28;3.22;;;3.03;;
8958;SDS011;4514;49.476;8.484;2022-09-01T10:41:55;2.90;;;2.70;;
8958;SDS011;4514;49.476;8.484;2022-09-01T10:44:23;2.80;;;2.67;;
8958;SDS011;4514;49.476;8.484;2022-09-01T10:47:43;3.38;;;3.00;;
8958;SDS011;4514;49.476;8.484;2022-09-01T11:08:39;3.00;;;2.80;;
8958;SDS011;4514;49.476;8.484;2022-09-01T11:11:15;2.80;;;2.55;;
8958;SDS011;4514;49.476;8.484;2022-09-01T11:13:55;2.90;;;2.60;;
8958;SDS011;4514;49.476;8.484;2022-09-01T11:18:53;3.05;;;2.70;;
8958;SDS011;4514;49.476;8.484;2022-09-01T11:21:27;2.53;;;2.38;;
8958;SDS011;4514;49.476;8.484;2022-09-01T11:26:56;2.63;;;2.42;;
8958;SDS011;4514;49.476;8.484;2022-09-01T11:32:20;3.03;;;2.50;;
8958;SDS011;4514;49.476;8.484;2022-09-01T11:34:48;3.08;;;2.88;;
8958;SDS011;4514;49.476;8.484;2022-09-01T11:37:16;2.72;;;2.53;;
8958;SDS011;4514;49.476;8.484;2022-09-01T11:39:45;2.85;;;2.65;;
8958;SDS011;4514;49.476;8.484;2022-09-01T11:44:59;2.63;;;2.47;;
8958;SDS011;4514;49.476;8.484;2022-09-01T11:47:27;2.97;;;2.78;;
8958;SDS011;4514;49.476;8.484;2022-09-01T11:49:58;2.58;;;2.47;;
8958;SDS011;4514;49.476;8.484;2022-09-01T11:52:27;2.70;;;2.45;;
8958;SDS011;4514;49.476;8.484;2022-09-01T11:54:54;2.60;;;2.40;;
8958;SDS011;4514;49.476;8.484;2022-09-01T11:59:53;2.80;;;2.60;;
8958;SDS011;4514;49.476;8.484;2022-09-01T12:02:20;3.00;;;2.60;;
8958;SDS011;4514;49.476;8.484;2022-09-01T12:04:49;2.85;;;2.75;;
8958;SDS011;4514;49.476;8.484;2022-09-01T12:09:59;3.28;;;2.88;;
8958;SDS011;4514;49.476;8.484;2022-09-01T12:12:35;2.75;;;2.65;;
8958;SDS011;4514;49.476;8.484;2022-09-01T12:15:10;3.15;;;2.95;;
8958;SDS011;4514;49.476;8.484;2022-09-01T12:17:47;2.95;;;2.75;;
8958;SDS011;4514;49.476;8.484;2022-09-01T12:20:27;2.78;;;2.58;;
8958;SDS011;4514;49.476;8.484;2022-09-01T12:22:55;2.38;;;2.28;;
8958;SDS011;4514;49.476;8.484;2022-09-01T12:25:29;2.75;;;2.58;;
8958;SDS011;4514;49.476;8.484;2022-09-01T12:28:00;3.85;;;2.40;;
8958;SDS011;4514;49.476;8.484;2022-09-01T12:30:27;2.75;;;2.50;;
8958;SDS011;4514;49.476;8.484;2022-09-01T12:32:53;2.83;;;2.63;;
8958;SDS011;4514;49.476;8.484;2022-09-01T12:35:23;3.15;;;2.95;;
8958;SDS011;4514;49.476;8.484;2022-09-01T12:37:51;2.95;;;2.70;;
8958;SDS011;4514;49.476;8.484;2022-09-01T12:40:53;2.90;;;2.70;;
8958;SDS011;4514;49.476;8.484;2022-09-01T12:43:53;2.80;;;2.70;;
8958;SDS011;4514;49.476;8.484;2022-09-01T12:46:37;3.42;;;2.83;;
8958;SDS011;4514;49.476;8.484;2022-09-01T12:49:19;3.08;;;2.88;;
8958;SDS011;4514;49.476;8.484;2022-09-01T12:52:11;2.80;;;2.60;;
8958;SDS011;4514;49.476;8.484;2022-09-01T12:54:47;3.00;;;2.80;;
8958;SDS011;4514;49.476;8.484;2022-09-01T12:57:23;3.35;;;2.97;;
8958;SDS011;4514;49.476;8.484;2022-09-01T13:00:04;3.40;;;3.15;;
8958;SDS011;4514;49.476;8.484;2022-09-01T13:02:33;3.58;;;3.28;;
8958;SDS011;4514;49.476;8.484;2022-09-01T13:07:55;3.53;;;3.22;;
8958;SDS011;4514;49.476;8.484;2022-09-01T13:10:22;4.68;;;3.55;;
8958;SDS011;4514;49.476;8.484;2022-09-01T13:12:49;3.50;;;3.30;;
8958;SDS011;4514;49.476;8.484;2022-09-01T13:15:15;3.45;;;3.20;;
8958;SDS011;4514;49.476;8.484;2022-09-01T13:17:41;3.15;;;2.97;;
8958;SDS011;4514;49.476;8.484;2022-09-01T13:20:11;3.55;;;3.25;;
8958;SDS011;4514;49.476;8.484;2022-09-01T13:22:37;3.10;;;2.90;;
8958;SDS011;4514;49.476;8.484;2022-09-01T13:25:03;3.10;;;2.85;;
8958;SDS011;4514;49.476;8.484;2022-09-01T13:27:29;3.17;;;2.97;;
8958;SDS011;4514;49.476;8.484;2022-09-01T13:29:58;3.28;;;2.97;;
8958;SDS011;4514;49.476;8.484;2022-09-01T13:32:24;3.30;;;3.10;;
8958;SDS011;4514;49.476;8.484;2022-09-01T13:34:50;3.60;;;3.30;;
8958;SDS011;4514;49.476;8.484;2022-09-01T13:37:17;3.22;;;3.03;;
8958;SDS011;4514;49.476;8.484;2022-09-01T13:39:43;3.20;;;3.00;;
8958;SDS011;4514;49.476;8.484;2022-09-01T13:42:11;3.50;;;3.20;;
8958;SDS011;4514;49.476;8.484;2022-09-01T13:44:37;3.35;;;3.15;;
8958;SDS011;4514;49.476;8.484;2022-09-01T13:47:07;3.33;;;3.13;;
8958;SDS011;4514;49.476;8.484;2022-09-01T13:49:35;3.60;;;3.33;;
8958;SDS011;4514;49.476;8.484;2022-09-01T13:52:00;3.10;;;2.90;;
8958;SDS011;4514;49.476;8.484;2022-09-01T13:54:31;3.35;;;3.15;;
8958;SDS011;4514;49.476;8.484;2022-09-01T13:56:58;3.80;;;3.50;;
8958;SDS011;4514;49.476;8.484;2022-09-01T13:59:24;4.15;;;3.22;;
8958;SDS011;4514;49.476;8.484;2022-09-01T14:01:56;4.45;;;3.38;;
8958;SDS011;4514;49.476;8.484;2022-09-01T14:04:27;4.45;;;3.58;;
8958;SDS011;4514;49.476;8.484;2022-09-01T14:06:52;3.53;;;3.22;;
8958;SDS011;4514;49.476;8.484;2022-09-01T14:09:20;3.45;;;3.15;;
8958;SDS011;4514;49.476;8.484;2022-09-01T14:11:45;3.25;;;2.92;;
8958;SDS011;4514;49.476;8.484;2022-09-01T14:14:11;3.63;;;3.28;;
8958;SDS011;4514;49.476;8.484;2022-09-01T14:16:41;2.90;;;2.70;;
8958;SDS011;4514;49.476;8.484;2022-09-01T14:19:10;2.95;;;2.67;;
8958;SDS011;4514;49.476;8.484;2022-09-01T14:21:42;3.10;;;2.85;;
8958;SDS011;4514;49.476;8.484;2022-09-01T14:24:13;3.20;;;3.00;;
8958;SDS011;4514;49.476;8.484;2022-09-01T14:26:45;3.25;;;3.05;;
8958;SDS011;4514;49.476;8.484;2022-09-01T14:29:11;3.72;;;3.40;;
8958;SDS011;4514;49.476;8.484;2022-09-01T14:31:39;3.35;;;3.15;;
8958;SDS011;4514;49.476;8.484;2022-09-01T14:34:06;4.75;;;3.00;;
8958;SDS011;4514;49.476;8.484;2022-09-01T14:36:36;4.82;;;3.20;;
8958;SDS011;4514;49.476;8.484;2022-09-01T14:39:03;3.50;;;3.20;;
8958;SDS011;4514;49.476;8.484;2022-09-01T14:41:32;3.08;;;2.78;;
8958;SDS011;4514;49.476;8.484;2022-09-01T14:43:59;3.40;;;3.10;;
8958;SDS011;4514;49.476;8.484;2022-09-01T14:46:28;2.58;;;2.47;;
8958;SDS011;4514;49.476;8.484;2022-09-01T14:48:54;2.97;;;2.55;;
8958;SDS011;4514;49.476;8.484;2022-09-01T14:51:23;3.30;;;3.00;;
8958;SDS011;4514;49.476;8.484;2022-09-01T14:53:51;2.85;;;2.65;;
8958;SDS011;4514;49.476;8.484;2022-09-01T14:56:20;2.60;;;2.40;;
8958;SDS011;4514;49.476;8.484;2022-09-01T14:58:49;3.10;;;2.67;;
8958;SDS011;4514;49.476;8.484;2022-09-01T15:01:23;3.00;;;2.80;;
8958;SDS011;4514;49.476;8.484;2022-09-01T15:03:50;3.95;;;3.65;;
8958;SDS011;4514;49.476;8.484;2022-09-01T15:06:19;2.80;;;2.60;;
8958;SDS011;4514;49.476;8.484;2022-09-01T15:08:45;2.90;;;2.70;;
8958;SDS011;4514;49.476;8.484;2022-09-01T15:11:14;2.70;;;2.50;;
8958;SDS011;4514;49.476;8.484;2022-09-01T15:13:42;3.10;;;2.90;;
8958;SDS011;4514;49.476;8.484;2022-09-01T15:16:13;2.97;;;2.78;;
8958;SDS011;4514;49.476;8.484;2022-09-01T15:18:40;3.58;;;3.00;;
8958;SDS011;4514;49.476;8.484;2022-09-01T15:21:16;7.07;;;6.40;;
8958;SDS011;4514;49.476;8.484;2022-09-01T15:23:42;7.05;;;6.45;;
8958;SDS011;4514;49.476;8.484;2022-09-01T15:26:08;4.53;;;4.13;;
8958;SDS011;4514;49.476;8.484;2022-09-01T15:28:36;4.28;;;3.30;;
8958;SDS011;4514;49.476;8.484;2022-09-01T15:31:01;2.85;;;2.55;;
8958;SDS011;4514;49.476;8.484;2022-09-01T15:33:29;2.70;;;2.50;;
8958;SDS011;4514;49.476;8.484;2022-09-01T15:35:54;5.55;;;3.22;;
8958;SDS011;4514;49.476;8.484;2022-09-01T15:38:20;4.32;;;2.50;;
8958;SDS011;4514;49.476;8.484;2022-09-01T15:40:50;2.78;;;2.50;;
8958;SDS011;4514;49.476;8.484;2022-09-01T15:43:16;2.90;;;2.70;;
8958;SDS011;4514;49.476;8.484;2022-09-01T15:45:41;3.00;;;2.72;;
8958;SDS011;4514;49.476;8.484;2022-09-01T15:48:10;3.03;;;2.60;;
8958;SDS011;4514;49.476;8.484;2022-09-01T15:50:36;2.70;;;2.50;;
8958;SDS011;4514;49.476;8.484;2022-09-01T15:53:02;2.70;;;2.50;;
8958;SDS011;4514;49.476;8.484;2022-09-01T15:55:42;2.90;;;2.60;;
8958;SDS011;4514;49.476;8.484;2022-09-01T15:58:09;2.60;;;2.40;;
8958;SDS011;4514;49.476;8.484;2022-09-01T16:00:36;2.88;;;2.58;;
8958;SDS011;4514;49.476;8.484;2022-09-01T16:03:02;4.03;;;2.92;;
8958;SDS011;4514;49.476;8.484;2022-09-01T16:05:32;3.33;;;2.75;;
8958;SDS011;4514;49.476;8.484;2022-09-01T16:08:01;3.47;;;2.58;;
8958;SDS011;4514;49.476;8.484;2022-09-01T16:10:29;2.90;;;2.70;;
8958;SDS011;4514;49.476;8.484;2022-09-01T16:12:56;2.50;;;2.30;;
8958;SDS011;4514;49.476;8.484;2022-09-01T16:15:24;4.47;;;2.72;;
8958;SDS011;4514;49.476;8.484;2022-09-01T16:18:00;2.95;;;2.67;;
8958;SDS011;4514;49.476;8.484;2022-09-01T16:23:33;3.30;;;2.97;;
8958;SDS011;4514;49.476;8.484;2022-09-01T16:26:06;3.20;;;2.67;;
8958;SDS011;4514;49.476;8.484;2022-09-01T16:28:33;3.35;;;2.70;;
8958;SDS011;4514;49.476;8.484;2022-09-01T16:31:16;3.70;;;2.50;;
8958;SDS011;4514;49.476;8.484;2022-09-01T16:33:49;3.08;;;2.88;;
8958;SDS011;4514;49.476;8.484;2022-09-01T16:38:52;3.42;;;2.58;;
8958;SDS011;4514;49.476;8.484;2022-09-01T16:44:16;3.10;;;2.80;;
8958;SDS011;4514;49.476;8.484;2022-09-01T16:47:04;5.63;;;2.90;;
8958;SDS011;4514;49.476;8.484;2022-09-01T16:49:39;3.15;;;2.50;;
8958;SDS011;4514;49.476;8.484;2022-09-01T16:52:22;4.47;;;2.60;;
8958;SDS011;4514;49.476;8.484;2022-09-01T17:00:59;2.30;;;2.10;;
8958;SDS011;4514;49.476;8.484;2022-09-01T17:03:33;3.85;;;2.67;;